Time;durP1;ratioP1;P1;durP2;ratioP2;P2;SDS_P1;SDS_P2;PMS_P1;PMS_P2;Temp;Humidity;BMP_temperature;BMP_pressure;BME280_temperature;BME280_humidity;BME280_pressure;Samples;Min_cycle;Max_cycle;Signal;HPM_P1;HPM_P2
2022/04/16 00:01:27;;;;;;;1.90;1.40;;;10.30;99.90;;;;;;5073026;28;20259;-89
2022/04/16 00:03:56;;;;;;;1.90;1.70;;;10.30;99.90;;;;;;5073207;28;20207;-89
2022/04/16 00:06:25;;;;;;;1.67;1.58;;;10.20;99.90;;;;;;5073773;28;20217;-89
2022/04/16 00:08:53;;;;;;;1.45;1.35;;;10.20;99.90;;;;;;5073761;28;20228;-89
2022/04/16 00:11:22;;;;;;;1.17;1.17;;;10.20;99.90;;;;;;5073188;28;20278;-90
2022/04/16 00:13:50;;;;;;;2.35;1.75;;;10.30;99.90;;;;;;5072923;28;20269;-89
2022/04/16 00:16:18;;;;;;;1.40;1.40;;;10.20;99.90;;;;;;5073119;28;20200;-89
2022/04/16 00:18:49;;;;;;;1.60;1.50;;;10.20;99.90;;;;;;5073086;28;20212;-89
2022/04/16 00:21:17;;;;;;;1.70;1.60;;;10.30;99.90;;;;;;5073040;28;20259;-89
2022/04/16 00:23:46;;;;;;;1.45;1.38;;;10.30;99.90;;;;;;5073242;28;20205;-89
2022/04/16 00:26:14;;;;;;;5.00;2.25;;;10.30;99.90;;;;;;5072565;28;20289;-89
2022/04/16 00:28:42;;;;;;;1.50;1.40;;;10.20;99.90;;;;;;5072711;28;20292;-89
2022/04/16 00:31:12;;;;;;;1.58;1.52;;;10.30;99.90;;;;;;5072524;28;20268;-89
2022/04/16 00:33:42;;;;;;;2.15;2.05;;;10.30;99.90;;;;;;5073253;28;20206;-89
2022/04/16 00:36:11;;;;;;;1.75;1.58;;;10.30;99.90;;;;;;5072958;28;20256;-89
2022/04/16 00:38:40;;;;;;;1.67;1.58;;;10.30;99.90;;;;;;5072755;28;20205;-89
2022/04/16 00:41:08;;;;;;;1.77;1.67;;;10.30;99.90;;;;;;5072467;28;20244;-89
2022/04/16 00:43:37;;;;;;;1.73;1.58;;;10.30;99.90;;;;;;5072875;28;20201;-89
2022/04/16 00:46:06;;;;;;;2.15;2.05;;;10.40;99.90;;;;;;5072984;28;20312;-89
2022/04/16 00:48:34;;;;;;;2.30;2.10;;;10.40;99.90;;;;;;5072896;28;20208;-89
2022/04/16 00:51:04;;;;;;;1.85;1.75;;;10.40;99.90;;;;;;5072421;28;20251;-89
2022/04/16 00:53:34;;;;;;;2.22;2.13;;;10.40;99.90;;;;;;5072524;28;20204;-89
2022/04/16 00:56:06;;;;;;;1.38;1.30;;;10.40;99.90;;;;;;5072496;28;20228;-91
2022/04/16 00:58:35;;;;;;;1.98;1.88;;;10.20;99.90;;;;;;5072760;28;20288;-89
2022/04/16 01:01:03;;;;;;;2.00;1.90;;;10.20;99.90;;;;;;5072251;28;20314;-89
2022/04/16 01:03:31;;;;;;;1.73;1.63;;;10.10;99.90;;;;;;5072672;28;20197;-89
2022/04/16 01:06:00;;;;;;;1.67;1.58;;;10.10;99.90;;;;;;5072462;28;20308;-89
2022/04/16 01:08:29;;;;;;;1.92;1.70;;;10.10;99.90;;;;;;5072740;28;20240;-89
2022/04/16 01:10:59;;;;;;;1.80;1.70;;;10.10;99.90;;;;;;5072073;28;20228;-89
2022/04/16 01:13:27;;;;;;;2.10;2.00;;;10.10;99.90;;;;;;5072409;28;20224;-90
2022/04/16 01:15:56;;;;;;;2.55;1.70;;;10.10;99.90;;;;;;5075499;28;20205;-90
2022/04/16 01:18:24;;;;;;;3.58;1.65;;;10.10;99.90;;;;;;5076152;28;20251;-89
2022/04/16 01:20:54;;;;;;;2.22;2.13;;;10.10;99.90;;;;;;5075952;28;20251;-90
2022/04/16 01:23:24;;;;;;;2.40;2.20;;;10.10;99.90;;;;;;5076572;28;20308;-90
2022/04/16 01:25:52;;;;;;;2.50;2.30;;;10.10;99.90;;;;;;5076458;28;20209;-90
2022/04/16 01:28:20;;;;;;;2.35;2.15;;;10.10;99.90;;;;;;5075990;28;20265;-89
2022/04/16 01:30:49;;;;;;;1.67;1.58;;;10.10;99.90;;;;;;5075688;28;20237;-89
2022/04/16 01:33:17;;;;;;;3.20;2.15;;;10.10;99.90;;;;;;5075873;28;20224;-89
2022/04/16 01:35:46;;;;;;;2.13;1.95;;;10.10;99.90;;;;;;5076023;28;20205;-90
2022/04/16 01:38:14;;;;;;;2.35;2.13;;;10.10;99.90;;;;;;5075921;28;20209;-90
2022/04/16 01:40:44;;;;;;;2.20;2.00;;;10.10;99.90;;;;;;5075819;28;20301;-90
2022/04/16 01:43:12;;;;;;;2.55;2.35;;;10.10;99.90;;;;;;5075627;28;20265;-90
2022/04/16 01:45:41;;;;;;;2.25;2.15;;;10.00;99.90;;;;;;5075537;28;20280;-90
2022/04/16 01:48:09;;;;;;;2.10;1.98;;;10.00;99.90;;;;;;5075433;28;20229;-90
2022/04/16 01:50:39;;;;;;;2.75;2.22;;;10.00;99.90;;;;;;5075506;28;20253;-90
2022/04/16 01:53:08;;;;;;;2.35;2.25;;;10.00;99.90;;;;;;5075904;28;20197;-90
2022/04/16 01:55:36;;;;;;;1.98;1.88;;;10.00;99.90;;;;;;5075661;28;20301;-90
2022/04/16 01:58:06;;;;;;;4.22;2.10;;;10.10;99.90;;;;;;5075441;28;20238;-90
2022/04/16 02:00:35;;;;;;;1.80;1.70;;;10.00;99.90;;;;;;5075258;28;20248;-90
2022/04/16 02:03:04;;;;;;;2.40;2.20;;;10.10;99.90;;;;;;5075516;28;20231;-90
2022/04/16 02:05:32;;;;;;;2.03;1.92;;;10.10;99.90;;;;;;5075558;28;20251;-91
2022/04/16 02:08:01;;;;;;;2.30;2.05;;;10.10;99.90;;;;;;5074920;28;20290;-90
2022/04/16 02:10:30;;;;;;;2.40;2.20;;;10.20;99.90;;;;;;5074979;28;20232;-90
2022/04/16 02:13:00;;;;;;;2.35;2.17;;;10.20;99.90;;;;;;5075350;28;20227;-90
2022/04/16 02:15:31;;;;;;;2.30;2.10;;;10.20;99.90;;;;;;5075533;28;20212;-90
2022/04/16 02:17:59;;;;;;;2.08;1.98;;;10.20;99.90;;;;;;5075447;28;20201;-90
2022/04/16 02:20:27;;;;;;;1.83;1.73;;;10.20;99.90;;;;;;5074883;28;20258;-90
2022/04/16 02:22:56;;;;;;;1.65;1.55;;;10.20;99.90;;;;;;5075139;28;20247;-90
2022/04/16 02:25:25;;;;;;;1.83;1.73;;;10.10;99.90;;;;;;5075168;28;20205;-90
2022/04/16 02:27:53;;;;;;;1.77;1.67;;;10.10;99.90;;;;;;5074130;28;20251;-90
2022/04/16 02:30:22;;;;;;;1.88;1.75;;;10.10;99.90;;;;;;5074335;28;20232;-90
2022/04/16 02:32:54;;;;;;;2.13;1.92;;;10.10;99.90;;;;;;5074895;28;20213;-90
2022/04/16 02:35:23;;;;;;;1.70;1.60;;;10.00;99.90;;;;;;5074806;28;20287;-90
2022/04/16 02:37:51;;;;;;;2.03;1.92;;;10.00;99.90;;;;;;5086501;28;20216;-90
2022/04/16 02:40:20;;;;;;;2.33;2.15;;;10.00;99.90;;;;;;5090314;28;20208;-90
2022/04/16 02:42:48;;;;;;;2.30;2.10;;;9.90;99.90;;;;;;5081009;28;20246;-90
2022/04/16 02:48:07;;;;;;;2.95;2.50;;;9.90;99.90;;;;;;5081596;28;20224;-90
2022/04/16 02:50:35;;;;;;;2.53;1.98;;;10.00;99.90;;;;;;5079040;28;20290;-90
2022/04/16 02:53:04;;;;;;;2.22;2.03;;;10.00;99.90;;;;;;5074532;28;20233;-91
2022/04/16 02:55:32;;;;;;;1.95;1.85;;;10.00;99.90;;;;;;5074582;28;20208;-90
2022/04/16 02:58:02;;;;;;;2.00;1.90;;;10.00;99.90;;;;;;5074496;28;20228;-90
2022/04/16 03:00:30;;;;;;;1.85;1.75;;;10.00;99.90;;;;;;5074085;28;20229;-89
2022/04/16 03:02:58;;;;;;;2.03;1.92;;;10.00;99.90;;;;;;5074154;28;20231;-90
2022/04/16 03:05:28;;;;;;;2.03;1.92;;;10.00;99.90;;;;;;5074416;28;20304;-90
2022/04/16 03:07:57;;;;;;;1.95;1.85;;;10.00;99.90;;;;;;5074347;28;20244;-90
2022/04/16 03:10:25;;;;;;;2.10;2.00;;;10.00;99.90;;;;;;5074177;28;20201;-90
2022/04/16 03:12:55;;;;;;;2.20;2.00;;;9.90;99.90;;;;;;5073926;28;20224;-90
2022/04/16 03:18:11;;;;;;;2.83;2.00;;;9.90;99.90;;;;;;5074017;28;20200;-90
2022/04/16 03:20:42;;;;;;;1.92;1.83;;;10.00;99.90;;;;;;5073795;28;20309;-90
2022/04/16 03:23:11;;;;;;;2.28;2.10;;;10.00;99.90;;;;;;5074105;28;20221;-90
2022/04/16 03:25:41;;;;;;;2.65;2.33;;;10.00;99.90;;;;;;5073594;28;20237;-90
2022/04/16 03:28:09;;;;;;;2.20;2.05;;;10.00;99.90;;;;;;5073659;28;20221;-90
2022/04/16 03:30:38;;;;;;;1.60;1.50;;;10.00;99.90;;;;;;5073673;28;20259;-90
2022/04/16 03:33:06;;;;;;;1.63;1.52;;;9.90;99.90;;;;;;5073802;28;20233;-90
2022/04/16 03:35:36;;;;;;;2.17;1.83;;;10.00;99.90;;;;;;5073924;28;20209;-90
2022/04/16 03:38:06;;;;;;;1.98;1.88;;;9.90;99.90;;;;;;5072667;28;20231;-90
2022/04/16 03:40:34;;;;;;;2.00;1.90;;;9.90;99.90;;;;;;5073663;28;20245;-90
2022/04/16 03:43:03;;;;;;;2.28;2.15;;;9.90;99.90;;;;;;5073290;28;20205;-90
2022/04/16 03:45:33;;;;;;;1.80;1.70;;;9.90;99.90;;;;;;5073241;28;20236;-90
2022/04/16 03:48:04;;;;;;;2.10;2.00;;;10.00;99.90;;;;;;5073377;28;20324;-90
2022/04/16 03:50:33;;;;;;;1.95;1.85;;;10.00;99.90;;;;;;5072980;28;20256;-90
2022/04/16 03:53:03;;;;;;;2.22;1.80;;;10.00;99.90;;;;;;5073535;28;20288;-92
2022/04/16 04:01:06;;;;;;;2.42;2.22;;;10.00;99.90;;;;;;5072766;28;20244;-90
2022/04/16 04:03:36;;;;;;;2.10;1.95;;;10.00;99.90;;;;;;5073096;28;20228;-90
2022/04/16 04:06:05;;;;;;;2.05;1.95;;;10.00;99.90;;;;;;5073344;28;20254;-90
2022/04/16 04:08:34;;;;;;;2.58;2.38;;;10.00;99.90;;;;;;5073287;28;20225;-90
2022/04/16 04:11:05;;;;;;;2.20;2.10;;;10.00;99.90;;;;;;5073618;28;20225;-90
2022/04/16 04:13:33;;;;;;;1.90;1.80;;;9.90;99.90;;;;;;5073502;28;20258;-90
2022/04/16 04:16:02;;;;;;;2.15;2.05;;;9.90;99.90;;;;;;5073697;28;20212;-90
2022/04/16 04:18:30;;;;;;;2.17;2.08;;;9.90;99.90;;;;;;5073595;28;20300;-90
2022/04/16 04:20:59;;;;;;;2.20;2.10;;;9.90;99.90;;;;;;5072558;28;20263;-90
2022/04/16 04:23:27;;;;;;;2.33;2.13;;;9.90;99.90;;;;;;5072641;28;20209;-90
2022/04/16 04:25:55;;;;;;;2.20;2.10;;;9.90;99.90;;;;;;5073283;28;20201;-89
2022/04/16 04:28:26;;;;;;;2.25;2.15;;;9.90;99.90;;;;;;5072979;28;20216;-90
2022/04/16 04:30:54;;;;;;;2.67;2.47;;;9.80;99.90;;;;;;5072608;28;20271;-90
2022/04/16 04:33:22;;;;;;;3.80;2.97;;;9.80;99.90;;;;;;5072851;28;20212;-90
2022/04/16 04:35:51;;;;;;;3.20;2.90;;;9.80;99.90;;;;;;5072797;28;20244;-90
2022/04/16 04:38:20;;;;;;;4.00;3.60;;;9.80;99.90;;;;;;5072747;28;20229;-90
2022/04/16 04:40:48;;;;;;;3.00;2.80;;;9.80;99.90;;;;;;5072440;28;20229;-90
2022/04/16 04:43:17;;;;;;;2.50;2.30;;;9.80;99.90;;;;;;5072953;28;20278;-90
2022/04/16 04:45:48;;;;;;;2.75;2.55;;;9.80;99.90;;;;;;5072871;28;20263;-90
2022/04/16 04:48:17;;;;;;;3.38;3.17;;;9.80;99.90;;;;;;5072544;28;20220;-90
2022/04/16 04:50:45;;;;;;;3.67;3.20;;;9.80;99.90;;;;;;5075131;28;20249;-90
2022/04/16 04:53:14;;;;;;;3.05;2.85;;;9.80;99.90;;;;;;5076884;28;20292;-91
2022/04/16 04:55:42;;;;;;;6.63;3.25;;;9.80;99.90;;;;;;5076801;28;20201;-91
2022/04/16 04:58:10;;;;;;;3.45;3.17;;;9.80;99.90;;;;;;5076583;28;20292;-91
2022/04/16 05:00:39;;;;;;;3.60;3.30;;;9.80;99.90;;;;;;5076479;28;20247;-90
2022/04/16 05:03:09;;;;;;;3.83;3.53;;;9.70;99.90;;;;;;5076625;28;20200;-91
2022/04/16 05:05:37;;;;;;;3.60;3.30;;;9.70;99.90;;;;;;5076098;28;20205;-90
2022/04/16 05:08:06;;;;;;;3.70;3.40;;;9.60;99.90;;;;;;5076821;28;20321;-90
2022/04/16 05:10:34;;;;;;;3.10;2.90;;;9.60;99.90;;;;;;5076081;28;20255;-91
2022/04/16 05:13:02;;;;;;;6.47;3.20;;;9.60;99.90;;;;;;5076216;28;20209;-90
2022/04/16 05:15:31;;;;;;;3.78;3.25;;;9.70;99.90;;;;;;5076197;28;20255;-90
2022/04/16 05:18:00;;;;;;;3.65;3.35;;;9.70;99.90;;;;;;5075950;28;20209;-89
2022/04/16 05:20:29;;;;;;;3.80;3.40;;;9.70;99.90;;;;;;5076355;28;20237;-90
2022/04/16 05:22:58;;;;;;;3.13;2.83;;;9.70;99.90;;;;;;5076491;28;20274;-92
2022/04/16 05:25:26;;;;;;;2.80;2.60;;;9.60;99.90;;;;;;5076152;28;20236;-92
2022/04/16 05:27:56;;;;;;;3.15;2.85;;;9.60;99.90;;;;;;5076447;28;20229;-91
2022/04/16 05:30:30;;;;;;;2.90;2.50;;;9.60;99.90;;;;;;5075545;28;20220;-90
2022/04/16 05:33:02;;;;;;;2.88;2.67;;;9.60;99.90;;;;;;5076426;28;20212;-89
2022/04/16 05:35:33;;;;;;;3.13;2.92;;;9.50;99.90;;;;;;5075931;28;20212;-89
2022/04/16 05:38:01;;;;;;;3.13;2.90;;;9.60;99.90;;;;;;5075885;28;20205;-90
2022/04/16 05:40:30;;;;;;;3.08;2.88;;;9.60;99.90;;;;;;5075450;28;20296;-90
2022/04/16 05:42:58;;;;;;;3.08;2.88;;;9.60;99.90;;;;;;5075963;28;20252;-90
2022/04/16 05:45:26;;;;;;;2.22;2.13;;;9.60;99.90;;;;;;5075874;28;20262;-90
2022/04/16 05:47:56;;;;;;;3.20;3.00;;;9.60;99.90;;;;;;5076134;28;20201;-89
2022/04/16 05:50:24;;;;;;;2.30;2.20;;;9.60;99.90;;;;;;5074995;28;20228;-90
2022/04/16 05:52:54;;;;;;;2.33;2.20;;;9.60;99.90;;;;;;5075593;28;20237;-90
2022/04/16 05:55:23;;;;;;;2.63;2.42;;;9.60;99.90;;;;;;5075541;28;20240;-90
2022/04/16 05:57:51;;;;;;;2.85;2.65;;;9.60;99.90;;;;;;5075585;28;20301;-92
2022/04/16 06:00:20;;;;;;;2.53;2.33;;;9.60;99.90;;;;;;5075447;28;20201;-90
2022/04/16 06:02:50;;;;;;;2.72;2.53;;;9.60;99.90;;;;;;5074252;28;20201;-90
2022/04/16 06:05:21;;;;;;;2.45;2.25;;;9.60;99.90;;;;;;5075565;28;20223;-90
2022/04/16 06:07:49;;;;;;;2.42;2.28;;;9.60;99.90;;;;;;5075509;28;20250;-90
2022/04/16 06:10:19;;;;;;;1.88;1.77;;;9.50;99.90;;;;;;5074768;28;20256;-90
2022/04/16 06:12:48;;;;;;;2.30;2.10;;;9.60;99.90;;;;;;5075120;28;20217;-90
2022/04/16 06:15:17;;;;;;;2.30;2.13;;;9.50;99.90;;;;;;5075610;28;20209;-90
2022/04/16 06:17:45;;;;;;;2.30;2.10;;;9.60;99.90;;;;;;5075195;28;20239;-90
2022/04/16 06:20:14;;;;;;;1.48;1.48;;;9.60;99.90;;;;;;5074754;28;20232;-90
2022/04/16 06:22:43;;;;;;;2.35;2.15;;;9.70;99.90;;;;;;5075139;28;20236;-89
2022/04/16 06:25:12;;;;;;;1.90;1.80;;;9.90;99.90;;;;;;5075494;28;20286;-89
2022/04/16 06:27:42;;;;;;;2.63;2.45;;;10.00;99.90;;;;;;5079064;28;20205;-88
2022/04/16 06:30:12;;;;;;;2.40;2.20;;;10.10;99.90;;;;;;5086637;28;20228;-89
2022/04/16 06:32:40;;;;;;;1.92;1.83;;;10.20;99.90;;;;;;5086962;28;20232;-89
2022/04/16 06:35:12;;;;;;;1.70;1.60;;;10.20;99.90;;;;;;5077262;28;20228;-90
2022/04/16 06:37:42;;;;;;;2.42;2.22;;;10.30;99.90;;;;;;5080715;28;20212;-89
2022/04/16 06:40:14;;;;;;;1.90;1.80;;;10.40;99.90;;;;;;5085417;28;20205;-89
2022/04/16 06:42:44;;;;;;;2.22;2.03;;;10.40;99.90;;;;;;5082576;28;20262;-89
2022/04/16 06:45:13;;;;;;;1.83;1.73;;;10.40;99.90;;;;;;5075749;28;20276;-90
2022/04/16 06:47:42;;;;;;;2.00;1.90;;;10.40;99.90;;;;;;5074892;28;20240;-90
2022/04/16 06:50:14;;;;;;;2.00;1.90;;;10.30;99.90;;;;;;5074367;28;20316;-90
2022/04/16 06:52:47;;;;;;;2.25;2.05;;;10.40;99.90;;;;;;5074790;28;20227;-89
2022/04/16 06:55:15;;;;;;;1.63;1.52;;;10.50;99.90;;;;;;5074567;28;20299;-90
2022/04/16 06:57:45;;;;;;;3.45;1.80;;;10.60;99.90;;;;;;5074425;28;20229;-89
2022/04/16 07:00:15;;;;;;;2.60;2.20;;;10.50;99.90;;;;;;5074118;28;20228;-90
2022/04/16 07:02:43;;;;;;;2.17;2.08;;;10.60;99.90;;;;;;5074322;28;20235;-90
2022/04/16 07:05:11;;;;;;;2.38;2.20;;;10.60;99.90;;;;;;5074419;28;20296;-89
2022/04/16 07:07:40;;;;;;;1.92;1.77;;;10.70;99.90;;;;;;5074436;28;20213;-90
2022/04/16 07:10:11;;;;;;;2.15;2.05;;;10.70;99.90;;;;;;5073927;28;20256;-89
2022/04/16 07:12:40;;;;;;;2.88;2.25;;;10.70;99.90;;;;;;5073649;28;20263;-89
2022/04/16 07:15:11;;;;;;;2.30;2.20;;;10.50;99.90;;;;;;5074168;28;20250;-89
2022/04/16 07:17:39;;;;;;;2.00;1.90;;;10.40;99.90;;;;;;5074031;28;20235;-89
2022/04/16 07:20:09;;;;;;;1.88;1.77;;;10.40;99.90;;;;;;5073965;28;20236;-89
2022/04/16 07:22:38;;;;;;;1.80;1.70;;;10.40;99.90;;;;;;5073978;28;20268;-89
2022/04/16 07:25:07;;;;;;;1.83;1.73;;;10.40;99.90;;;;;;5073208;28;20209;-89
2022/04/16 07:27:35;;;;;;;1.20;1.20;;;10.30;99.90;;;;;;5074035;28;20208;-89
2022/04/16 07:30:04;;;;;;;1.45;1.30;;;10.20;99.90;;;;;;5073529;28;20221;-89
2022/04/16 07:32:34;;;;;;;6.57;1.17;;;10.10;99.90;;;;;;5073825;28;20221;-90
2022/04/16 07:35:02;;;;;;;0.80;0.80;;;10.00;99.90;;;;;;5074748;28;20232;-90
2022/04/16 07:37:31;;;;;;;1.30;1.25;;;10.00;99.90;;;;;;5073541;28;20244;-89
2022/04/16 07:39:59;;;;;;;1.60;1.50;;;9.90;99.90;;;;;;5073707;28;20264;-89
2022/04/16 07:42:29;;;;;;;0.90;0.90;;;9.80;99.90;;;;;;5073335;28;20251;-89
2022/04/16 07:44:57;;;;;;;1.88;1.40;;;9.80;99.90;;;;;;5073467;28;20228;-90
2022/04/16 07:47:25;;;;;;;1.33;1.23;;;9.80;99.90;;;;;;5073579;28;20236;-90
2022/04/16 07:49:55;;;;;;;1.10;1.10;;;9.80;99.90;;;;;;5073461;28;20217;-89
2022/04/16 07:52:25;;;;;;;0.98;0.98;;;9.80;99.90;;;;;;5073003;28;20259;-90
2022/04/16 07:54:53;;;;;;;1.70;1.05;;;9.70;99.90;;;;;;5073727;28;20201;-90
2022/04/16 07:57:21;;;;;;;1.30;1.20;;;9.60;99.90;;;;;;5073369;28;20287;-90
2022/04/16 07:59:50;;;;;;;1.40;1.30;;;9.60;99.90;;;;;;5073646;28;20197;-90
2022/04/16 08:02:18;;;;;;;1.30;1.20;;;9.60;99.90;;;;;;5073310;28;20278;-90
2022/04/16 08:04:46;;;;;;;1.58;1.00;;;9.70;99.90;;;;;;5073142;28;20212;-89
2022/04/16 08:07:16;;;;;;;1.00;1.00;;;9.70;99.90;;;;;;5073263;28;20205;-89
2022/04/16 08:09:45;;;;;;;0.90;0.90;;;9.80;99.90;;;;;;5073358;28;20217;-90
2022/04/16 08:12:13;;;;;;;1.10;1.10;;;9.80;99.90;;;;;;5073043;28;20225;-90
2022/04/16 08:14:41;;;;;;;2.88;1.98;;;9.90;99.90;;;;;;5074185;28;20301;-90
2022/04/16 08:17:10;;;;;;;0.90;0.90;;;10.00;99.90;;;;;;5077072;28;20233;-89
2022/04/16 08:19:38;;;;;;;1.05;1.00;;;10.00;99.90;;;;;;5076729;28;20224;-90
2022/04/16 08:22:07;;;;;;;1.27;1.17;;;10.00;99.90;;;;;;5074057;28;20263;-89
2022/04/16 08:24:41;;;;;;;1.48;1.38;;;10.10;99.90;;;;;;5072825;28;20201;-89
2022/04/16 08:27:10;;;;;;;0.98;0.98;;;10.10;99.90;;;;;;5073313;28;20201;-90
2022/04/16 08:29:38;;;;;;;0.82;0.82;;;10.10;99.90;;;;;;5072737;28;20221;-90
2022/04/16 08:32:08;;;;;;;1.58;1.48;;;10.10;99.90;;;;;;5072661;28;20301;-89
2022/04/16 08:34:52;;;;;;;2.17;1.90;;;10.10;99.90;;;;;;5073037;28;20209;-90
2022/04/16 08:37:21;;;;;;;2.00;1.83;;;10.10;99.90;;;;;;5073026;28;20239;-90
2022/04/16 08:39:50;;;;;;;2.03;1.73;;;10.10;99.90;;;;;;5072752;28;20269;-89
2022/04/16 08:42:20;;;;;;;2.90;1.85;;;10.10;99.90;;;;;;5072126;28;20232;-90
2022/04/16 08:44:49;;;;;;;1.58;1.48;;;10.20;99.90;;;;;;5072904;28;20296;-90
2022/04/16 08:47:18;;;;;;;1.23;1.23;;;10.00;99.90;;;;;;5072965;28;20272;-89
2022/04/16 08:49:46;;;;;;;1.08;1.08;;;9.90;99.90;;;;;;5072411;28;20269;-89
2022/04/16 08:52:15;;;;;;;1.10;1.10;;;9.90;99.90;;;;;;5072677;28;20252;-90
2022/04/16 08:54:44;;;;;;;1.58;1.48;;;9.90;99.90;;;;;;5072713;28;20248;-90
2022/04/16 08:57:14;;;;;;;0.93;0.93;;;9.80;99.90;;;;;;5072674;28;20244;-89
2022/04/16 08:59:50;;;;;;;1.30;1.23;;;9.80;99.90;;;;;;5072564;28;20255;-89
2022/04/16 09:02:19;;;;;;;1.05;1.05;;;9.90;99.90;;;;;;5072528;28;20224;-89
2022/04/16 09:04:48;;;;;;;1.25;1.17;;;9.80;99.90;;;;;;5072958;28;20205;-89
2022/04/16 09:07:17;;;;;;;1.25;1.25;;;9.80;99.90;;;;;;5072695;28;20200;-89
2022/04/16 09:09:45;;;;;;;1.15;1.15;;;9.70;99.90;;;;;;5072354;28;20213;-89
2022/04/16 09:12:18;;;;;;;1.42;1.33;;;9.60;99.90;;;;;;5072242;28;20256;-89
2022/04/16 09:14:47;;;;;;;3.35;1.65;;;9.60;99.90;;;;;;5072520;28;20243;-89
2022/04/16 09:17:17;;;;;;;1.25;1.15;;;9.60;99.90;;;;;;5072460;28;20227;-89
2022/04/16 09:19:54;;;;;;;1.10;1.10;;;9.60;99.90;;;;;;5072546;28;20201;-89
2022/04/16 09:22:35;;;;;;;1.40;1.30;;;9.60;99.90;;;;;;5072166;28;20229;-89
2022/04/16 09:25:05;;;;;;;1.40;1.30;;;9.70;99.90;;;;;;5072582;28;20283;-89
2022/04/16 09:27:47;;;;;;;1.98;1.50;;;9.70;99.90;;;;;;5072249;28;20201;-88
2022/04/16 09:30:23;;;;;;;1.10;1.10;;;9.80;99.90;;;;;;5071773;28;20231;-89
2022/04/16 09:32:52;;;;;;;1.58;1.48;;;9.80;99.90;;;;;;5072479;28;20235;-89
2022/04/16 09:35:28;;;;;;;1.05;1.02;;;9.90;99.90;;;;;;5072565;28;20319;-89
2022/04/16 09:38:12;;;;;;;1.65;1.55;;;9.90;99.90;;;;;;5075847;28;20201;-89
2022/04/16 09:40:42;;;;;;;1.50;1.40;;;10.00;99.90;;;;;;5075553;28;20217;-89
2022/04/16 09:43:12;;;;;;;1.98;1.80;;;10.00;99.90;;;;;;5075794;28;20215;-89
2022/04/16 09:45:42;;;;;;;1.10;1.10;;;10.10;99.90;;;;;;5076069;28;20225;-89
2022/04/16 09:48:13;;;;;;;1.58;1.48;;;10.10;99.90;;;;;;5075626;28;20292;-89
2022/04/16 09:50:43;;;;;;;1.52;1.45;;;10.30;99.90;;;;;;5075795;28;20308;-89
2022/04/16 09:53:12;;;;;;;1.55;1.45;;;10.50;99.90;;;;;;5075490;28;20209;-89
2022/04/16 09:55:42;;;;;;;1.75;1.65;;;10.60;99.90;;;;;;5075839;28;20209;-89
2022/04/16 09:58:13;;;;;;;1.60;1.50;;;10.80;99.90;;;;;;5075574;28;20197;-90
2022/04/16 10:00:42;;;;;;;4.70;1.75;;;10.90;99.90;;;;;;5075231;28;20241;-89
2022/04/16 10:03:32;;;;;;;1.35;1.35;;;11.10;99.90;;;;;;5075179;28;20296;-87
2022/04/16 10:06:01;;;;;;;2.42;1.45;;;11.40;99.90;;;;;;5075491;28;20207;-87
2022/04/16 10:08:31;;;;;;;2.33;1.90;;;11.60;99.90;;;;;;5075300;28;20213;-88
2022/04/16 10:11:03;;;;;;;1.75;1.65;;;11.80;99.90;;;;;;5075116;28;20232;-88
2022/04/16 10:13:44;;;;;;;1.35;1.35;;;12.20;99.90;;;;;;5075693;28;20207;-89
2022/04/16 10:16:19;;;;;;;1.65;1.55;;;12.50;99.90;;;;;;5076374;28;20296;-88
2022/04/16 10:18:49;;;;;;;2.40;1.70;;;12.90;99.90;;;;;;5078951;28;20240;-87
2022/04/16 10:21:18;;;;;;;1.35;1.33;;;13.30;99.90;;;;;;5078154;28;20225;-88
2022/04/16 10:23:47;;;;;;;2.22;1.88;;;14.00;99.90;;;;;;5075624;28;20232;-88
2022/04/16 10:26:17;;;;;;;1.60;1.50;;;14.20;99.90;;;;;;5075871;28;20201;-89
2022/04/16 10:28:54;;;;;;;1.85;1.75;;;14.20;99.90;;;;;;5077167;28;20270;-89
2022/04/16 10:31:24;;;;;;;1.60;1.50;;;13.80;99.90;;;;;;5077184;28;20255;-89
2022/04/16 10:34:01;;;;;;;1.70;1.60;;;13.50;99.90;;;;;;5076053;28;20205;-90
2022/04/16 10:36:36;;;;;;;1.85;1.73;;;13.40;99.90;;;;;;5074939;28;20227;-89
2022/04/16 10:39:15;;;;;;;4.75;1.98;;;13.20;99.90;;;;;;5075104;28;20217;-87
2022/04/16 10:41:55;;;;;;;1.52;1.42;;;13.30;99.90;;;;;;5074547;28;20285;-89
2022/04/16 10:44:26;;;;;;;1.70;1.48;;;13.80;99.90;;;;;;5074524;28;20255;-88
2022/04/16 10:46:58;;;;;;;1.17;1.17;;;14.10;99.50;;;;;;5074362;28;20203;-88
2022/04/16 10:49:27;;;;;;;1.48;1.40;;;14.50;99.30;;;;;;5074360;28;20297;-88
2022/04/16 10:51:56;;;;;;;1.48;1.42;;;14.10;98.30;;;;;;5074486;28;20253;-88
2022/04/16 10:54:32;;;;;;;1.58;1.45;;;13.90;98.20;;;;;;5074556;28;20209;-88
2022/04/16 10:57:01;;;;;;;1.50;1.40;;;13.40;98.20;;;;;;5074290;28;20209;-88
2022/04/16 10:59:40;;;;;;;1.80;1.70;;;13.20;99.20;;;;;;5074398;28;20247;-89
2022/04/16 11:02:20;;;;;;;1.75;1.65;;;12.50;99.90;;;;;;5074115;28;20247;-88
2022/04/16 11:05:00;;;;;;;1.83;1.70;;;12.30;99.90;;;;;;5074320;28;20250;-88
2022/04/16 11:07:30;;;;;;;2.15;2.00;;;12.00;99.90;;;;;;5074483;28;20201;-89
2022/04/16 11:09:58;;;;;;;2.33;1.92;;;11.80;99.90;;;;;;5074277;28;20233;-88
2022/04/16 11:12:27;;;;;;;2.28;2.03;;;11.60;99.90;;;;;;5073602;28;20293;-88
2022/04/16 11:14:57;;;;;;;2.20;2.03;;;11.30;99.90;;;;;;5074105;28;20260;-88
2022/04/16 11:17:26;;;;;;;2.50;1.90;;;11.10;99.90;;;;;;5074389;28;20278;-88
2022/04/16 11:20:01;;;;;;;1.75;1.65;;;10.90;99.90;;;;;;5073975;28;20209;-89
2022/04/16 11:22:30;;;;;;;2.03;1.92;;;10.80;99.90;;;;;;5073486;28;20225;-89
2022/04/16 11:24:59;;;;;;;2.13;1.98;;;10.70;99.90;;;;;;5073940;28;20197;-88
2022/04/16 11:35:57;;;;;;;2.30;2.10;;;10.60;99.90;;;;;;5073887;28;20323;-89
2022/04/16 11:38:28;;;;;;;1.95;1.85;;;10.50;99.90;;;;;;5073674;28;20292;-89
2022/04/16 11:40:59;;;;;;;2.08;1.98;;;10.40;99.90;;;;;;5073019;28;20256;-89
2022/04/16 11:43:29;;;;;;;3.10;2.55;;;10.40;99.90;;;;;;5073342;28;20201;-89
2022/04/16 11:46:01;;;;;;;1.80;1.70;;;10.30;99.90;;;;;;5073879;28;20266;-89
2022/04/16 11:48:32;;;;;;;1.85;1.75;;;10.30;99.90;;;;;;5073224;28;20201;-89
2022/04/16 11:51:01;;;;;;;3.22;2.30;;;10.40;99.90;;;;;;5073083;28;20232;-89
2022/04/16 11:53:29;;;;;;;2.50;2.30;;;10.40;99.90;;;;;;5072962;28;20278;-89
2022/04/16 11:56:02;;;;;;;2.28;2.08;;;10.50;99.90;;;;;;5073214;28;20217;-89
2022/04/16 11:58:30;;;;;;;3.22;2.08;;;10.50;99.90;;;;;;5073530;28;20237;-89
2022/04/16 12:01:04;;;;;;;2.40;2.20;;;10.60;99.90;;;;;;5072548;28;20247;-90
2022/04/16 12:03:39;;;;;;;2.05;1.77;;;10.60;99.90;;;;;;5073319;28;20238;-89
2022/04/16 12:06:10;;;;;;;2.15;1.95;;;10.60;99.90;;;;;;5073334;28;20292;-89
2022/04/16 12:08:38;;;;;;;2.25;2.05;;;10.50;99.90;;;;;;5072998;28;20292;-88
2022/04/16 12:11:07;;;;;;;1.83;1.73;;;10.50;99.90;;;;;;5073083;28;20229;-89
2022/04/16 12:13:36;;;;;;;1.85;1.75;;;10.60;99.90;;;;;;5072800;28;20255;-89
2022/04/16 12:16:07;;;;;;;2.65;2.45;;;10.50;99.90;;;;;;5073007;28;20219;-89
2022/04/16 12:18:37;;;;;;;1.77;1.67;;;10.50;99.90;;;;;;5073057;28;20213;-89
2022/04/16 12:21:08;;;;;;;2.78;2.58;;;10.40;99.90;;;;;;5073051;28;20217;-89
2022/04/16 12:23:38;;;;;;;2.50;2.30;;;10.40;99.90;;;;;;5073336;28;20223;-88
2022/04/16 12:26:08;;;;;;;2.10;2.00;;;10.40;99.90;;;;;;5073317;28;20206;-89
2022/04/16 12:28:37;;;;;;;2.28;1.92;;;10.40;99.90;;;;;;5073492;28;20205;-88
2022/04/16 12:31:07;;;;;;;3.53;1.92;;;10.60;99.90;;;;;;5073038;28;20256;-89
2022/04/16 12:33:36;;;;;;;2.15;1.95;;;10.80;99.90;;;;;;5072468;28;20316;-89
2022/04/16 12:36:06;;;;;;;2.00;1.80;;;11.00;99.90;;;;;;5073023;28;20296;-89
2022/04/16 12:38:35;;;;;;;1.90;1.80;;;11.20;99.90;;;;;;5073087;28;20212;-89
2022/04/16 12:41:08;;;;;;;2.15;2.05;;;11.10;99.90;;;;;;5072100;28;20288;-88
2022/04/16 12:43:37;;;;;;;1.50;1.40;;;11.10;99.40;;;;;;5072588;28;20204;-89
2022/04/16 12:46:07;;;;;;;2.78;2.03;;;10.90;99.50;;;;;;5072992;28;20232;-88
2022/04/16 12:48:35;;;;;;;1.67;1.58;;;10.80;99.90;;;;;;5072508;28;20204;-88
2022/04/16 12:51:04;;;;;;;1.70;1.60;;;10.70;99.70;;;;;;5072617;28;20259;-89
2022/04/16 12:53:32;;;;;;;1.90;1.80;;;10.80;99.10;;;;;;5072309;28;20312;-88
2022/04/16 12:56:00;;;;;;;1.80;1.70;;;10.90;99.30;;;;;;5072688;28;20291;-89
2022/04/16 12:58:29;;;;;;;1.85;1.55;;;10.90;99.00;;;;;;5072244;28;20291;-88
2022/04/16 13:00:57;;;;;;;1.80;1.70;;;10.90;98.00;;;;;;5071884;28;20249;-88
2022/04/16 13:03:27;;;;;;;1.77;1.67;;;10.90;97.60;;;;;;5072722;28;20211;-88
2022/04/16 13:05:56;;;;;;;1.60;1.50;;;10.90;98.40;;;;;;5072693;28;20205;-89
2022/04/16 13:08:24;;;;;;;1.60;1.50;;;11.00;98.30;;;;;;5072545;28;20248;-88
2022/04/16 13:10:53;;;;;;;1.50;1.40;;;11.00;97.00;;;;;;5073279;28;20286;-88
2022/04/16 13:13:22;;;;;;;1.88;1.77;;;10.80;97.20;;;;;;5076045;28;20253;-88
2022/04/16 13:15:51;;;;;;;1.90;1.80;;;10.90;98.00;;;;;;5076669;28;20204;-88
2022/04/16 13:18:19;;;;;;;3.95;1.77;;;10.90;97.40;;;;;;5076318;28;20240;-87
2022/04/16 13:20:50;;;;;;;1.40;1.30;;;10.90;97.20;;;;;;5075855;28;20244;-88
2022/04/16 13:23:18;;;;;;;2.17;2.00;;;10.80;98.20;;;;;;5076303;28;20212;-88